Time;durP1;ratioP1;P1;durP2;ratioP2;P2;SDS_P1;SDS_P2;PMS_P1;PMS_P2;Temp;Humidity;BMP_temperature;BMP_pressure;BME280_temperature;BME280_humidity;BME280_pressure;Samples;Min_cycle;Max_cycle;Signal;HPM_P1;HPM_P2
2022/11/27 00:01:23;;;;;;;28.30;20.97;;;5.30;99.90;;;;;;5052699;28;20225;-77
2022/11/27 00:03:49;;;;;;;36.50;21.90;;;5.40;99.90;;;;;;5053902;28;20174;-77
2022/11/27 00:06:17;;;;;;;33.27;21.60;;;5.30;99.90;;;;;;5052626;28;20189;-77
2022/11/27 00:08:44;;;;;;;35.17;23.03;;;5.30;99.90;;;;;;5052517;28;20205;-77
2022/11/27 00:14:31;;;;;;;37.33;24.03;;;5.40;99.90;;;;;;5053623;28;20161;-77
2022/11/27 00:16:58;;;;;;;42.60;24.88;;;5.30;99.90;;;;;;5052665;28;20182;-77
2022/11/27 00:19:24;;;;;;;37.47;23.83;;;5.30;99.90;;;;;;5053558;28;20581;-77
2022/11/27 00:21:50;;;;;;;38.67;22.77;;;5.40;99.90;;;;;;5052056;28;20283;-77
2022/11/27 00:24:15;;;;;;;31.77;20.40;;;5.40;99.90;;;;;;5053377;28;20174;-77
2022/11/27 00:26:41;;;;;;;33.97;21.60;;;5.20;99.90;;;;;;5052128;28;20265;-77
2022/11/27 00:29:06;;;;;;;39.47;22.60;;;5.30;99.90;;;;;;5052037;28;20194;-77
2022/11/27 00:31:33;;;;;;;37.20;22.63;;;5.30;99.90;;;;;;5052060;28;20217;-77
2022/11/27 00:34:01;;;;;;;34.73;21.87;;;5.30;99.90;;;;;;5052060;28;20252;-77
2022/11/27 00:36:28;;;;;;;33.50;21.43;;;5.30;99.90;;;;;;5052799;28;20189;-77
2022/11/27 00:38:54;;;;;;;35.70;21.43;;;5.30;99.90;;;;;;5052177;28;20206;-77
2022/11/27 00:41:23;;;;;;;33.73;20.97;;;5.40;99.90;;;;;;5053112;28;20300;-77
2022/11/27 00:43:49;;;;;;;31.97;20.77;;;5.50;99.90;;;;;;5053038;28;20602;-77
2022/11/27 00:46:17;;;;;;;52.03;22.27;;;5.50;99.90;;;;;;5053081;28;20281;-77
2022/11/27 00:48:43;;;;;;;38.90;22.63;;;5.40;99.90;;;;;;5051666;28;20285;-77
2022/11/27 00:51:12;;;;;;;35.07;21.63;;;5.30;99.90;;;;;;5051903;28;20695;-77
2022/11/27 00:53:39;;;;;;;38.57;22.70;;;5.30;99.90;;;;;;5054755;28;20185;-77
2022/11/27 00:56:05;;;;;;;44.27;22.17;;;5.20;99.90;;;;;;5057066;28;20197;-77
2022/11/27 00:58:30;;;;;;;33.77;21.10;;;5.20;99.90;;;;;;5057473;28;20238;-77
2022/11/27 01:00:58;;;;;;;34.13;19.30;;;5.10;99.90;;;;;;5055696;28;20205;-77
2022/11/27 01:03:25;;;;;;;34.43;19.03;;;5.00;99.90;;;;;;5057124;28;20703;-77
2022/11/27 01:05:51;;;;;;;35.10;19.53;;;4.90;99.90;;;;;;5056495;28;20178;-77
2022/11/27 01:08:18;;;;;;;30.33;18.20;;;4.90;99.90;;;;;;5055571;28;20198;-77
2022/11/27 01:10:51;;;;;;;29.87;18.53;;;4.90;99.90;;;;;;5056378;28;20197;-77
2022/11/27 01:13:17;;;;;;;35.10;18.27;;;4.90;99.90;;;;;;5055525;28;20182;-77
2022/11/27 01:15:43;;;;;;;35.23;18.27;;;4.90;99.90;;;;;;5056351;28;20194;-77
2022/11/27 01:18:09;;;;;;;35.30;19.07;;;4.80;99.90;;;;;;5055754;28;20687;-77
2022/11/27 01:23:58;;;;;;;28.23;16.17;;;4.80;99.90;;;;;;5056625;28;20224;-77
2022/11/27 01:26:23;;;;;;;32.73;16.23;;;4.80;99.90;;;;;;5056508;28;20178;-77
2022/11/27 01:28:56;;;;;;;25.30;16.43;;;4.70;99.90;;;;;;5056417;28;20205;-77
2022/11/27 01:31:25;;;;;;;37.93;16.73;;;4.70;99.90;;;;;;5056799;28;20194;-77
2022/11/27 01:33:56;;;;;;;70.93;16.87;;;4.70;99.90;;;;;;5055327;28;20174;-77
2022/11/27 01:36:22;;;;;;;47.93;16.47;;;4.60;99.90;;;;;;5055113;28;20210;-77
2022/11/27 01:38:48;;;;;;;59.00;17.20;;;4.50;99.90;;;;;;5055763;28;20202;-77
2022/11/27 01:41:18;;;;;;;125.33;17.03;;;4.50;99.90;;;;;;5055441;28;20210;-77
2022/11/27 01:43:45;;;;;;;129.70;17.60;;;4.40;99.90;;;;;;5055266;28;20178;-77
2022/11/27 01:46:29;;;;;;;70.00;17.87;;;4.40;99.90;;;;;;5054833;28;20175;-77
2022/11/27 01:49:04;;;;;;;62.30;17.30;;;4.40;99.90;;;;;;5055030;28;20202;-77
2022/11/27 01:51:30;;;;;;;26.90;16.90;;;4.40;99.90;;;;;;5054888;28;20178;-77
2022/11/27 01:53:56;;;;;;;26.03;16.30;;;4.50;99.90;;;;;;5055179;28;20182;-77
2022/11/27 01:56:24;;;;;;;26.57;16.07;;;4.60;99.90;;;;;;5055289;28;20178;-77
2022/11/27 01:58:50;;;;;;;29.00;17.33;;;4.70;99.90;;;;;;5054614;28;20210;-77
2022/11/27 02:01:16;;;;;;;37.93;20.53;;;4.60;99.90;;;;;;5054600;28;20690;-77
2022/11/27 02:03:41;;;;;;;30.47;19.27;;;4.70;99.90;;;;;;5054565;28;20273;-77
2022/11/27 02:06:13;;;;;;;39.27;19.07;;;4.80;99.90;;;;;;5055766;28;20181;-77
2022/11/27 02:08:39;;;;;;;21.27;15.37;;;4.70;99.90;;;;;;5054530;28;20194;-77
2022/11/27 02:11:33;;;;;;;23.10;15.97;;;4.40;99.90;;;;;;5055728;28;20185;-77
2022/11/27 02:14:20;;;;;;;22.20;15.67;;;4.50;99.90;;;;;;5054517;28;20236;-77
2022/11/27 02:17:03;;;;;;;17.03;12.77;;;4.60;99.90;;;;;;5055614;28;20171;-77
2022/11/27 02:19:50;;;;;;;16.97;12.80;;;4.70;99.90;;;;;;5054373;28;20174;-77
2022/11/27 02:22:53;;;;;;;16.67;12.90;;;4.70;99.90;;;;;;5054204;28;20202;-77
2022/11/27 02:25:33;;;;;;;16.50;12.67;;;4.70;99.90;;;;;;5054143;28;20185;-77
2022/11/27 02:28:34;;;;;;;15.40;12.33;;;4.80;99.90;;;;;;5055614;28;20198;-77
2022/11/27 02:31:27;;;;;;;16.43;12.03;;;4.80;99.90;;;;;;5054327;28;20189;-77
2022/11/27 02:33:59;;;;;;;17.70;13.07;;;4.80;99.90;;;;;;5054166;28;20650;-77
2022/11/27 02:36:29;;;;;;;15.07;11.77;;;4.80;99.90;;;;;;5055614;28;20253;-77
2022/11/27 02:39:17;;;;;;;14.93;11.97;;;4.70;99.90;;;;;;5054350;28;20201;-77
2022/11/27 02:41:56;;;;;;;16.83;11.60;;;4.70;99.90;;;;;;5054730;28;20210;-77
2022/11/27 02:44:25;;;;;;;14.27;11.63;;;4.60;99.90;;;;;;5054374;28;20170;-77
2022/11/27 02:46:53;;;;;;;15.23;12.03;;;4.40;99.90;;;;;;5054878;28;20269;-77
2022/11/27 02:49:20;;;;;;;15.90;11.43;;;4.40;99.90;;;;;;5053864;28;20212;-77
2022/11/27 02:51:52;;;;;;;15.97;12.03;;;4.50;99.90;;;;;;5054029;28;20277;-77
2022/11/27 02:54:23;;;;;;;14.93;12.20;;;4.50;99.90;;;;;;5054903;28;20592;-77
2022/11/27 02:56:50;;;;;;;16.07;11.77;;;4.60;99.90;;;;;;5054025;28;20171;-77
2022/11/27 02:59:17;;;;;;;16.63;12.10;;;4.70;99.90;;;;;;5053798;28;20206;-79
2022/11/27 03:01:52;;;;;;;14.87;11.37;;;4.70;99.90;;;;;;5053821;28;20221;-77
2022/11/27 03:04:25;;;;;;;13.90;11.33;;;4.80;99.90;;;;;;5053562;28;20181;-77
2022/11/27 03:06:56;;;;;;;16.37;12.33;;;4.80;99.90;;;;;;5053611;28;20178;-77
2022/11/27 03:09:40;;;;;;;18.17;12.47;;;4.80;99.90;;;;;;5053460;28;20258;-77
2022/11/27 03:12:08;;;;;;;15.67;11.83;;;4.90;99.90;;;;;;5053377;28;20174;-77
2022/11/27 03:14:35;;;;;;;15.70;11.63;;;4.80;99.90;;;;;;5053080;28;20193;-77
2022/11/27 03:17:58;;;;;;;19.03;12.67;;;4.80;99.90;;;;;;5053117;28;20544;-77
2022/11/27 03:20:31;;;;;;;20.23;11.90;;;4.80;99.90;;;;;;5036403;28;20178;-77
2022/11/27 03:22:57;;;;;;;31.70;12.47;;;4.70;99.90;;;;;;5052394;28;20159;-77
2022/11/27 03:25:23;;;;;;;27.50;12.37;;;4.70;99.90;;;;;;5052827;28;20193;-77
2022/11/27 03:27:55;;;;;;;15.57;11.90;;;4.60;99.90;;;;;;5054163;28;20194;-77
2022/11/27 03:30:21;;;;;;;17.23;12.27;;;4.60;99.90;;;;;;5054519;28;20603;-77
2022/11/27 03:32:46;;;;;;;17.80;13.00;;;4.50;99.90;;;;;;5054567;28;20198;-77
2022/11/27 03:35:15;;;;;;;32.27;13.40;;;4.50;99.90;;;;;;5052880;28;20186;-77
2022/11/27 03:37:41;;;;;;;19.57;13.50;;;4.40;99.90;;;;;;5054713;28;20202;-77
2022/11/27 03:40:07;;;;;;;19.10;12.20;;;4.40;99.90;;;;;;5054012;28;20211;-77
2022/11/27 03:42:39;;;;;;;40.20;12.30;;;4.40;99.90;;;;;;5053877;28;20293;-77
2022/11/27 03:45:30;;;;;;;18.63;11.67;;;4.40;99.90;;;;;;5054200;28;20162;-77
2022/11/27 03:48:21;;;;;;;31.20;12.00;;;4.40;99.90;;;;;;5054014;28;20190;-77
2022/11/27 03:50:52;;;;;;;14.60;11.23;;;4.40;99.90;;;;;;5054043;28;20178;-77
2022/11/27 03:53:20;;;;;;;19.30;11.13;;;4.50;99.90;;;;;;5052913;28;20200;-77
2022/11/27 04:02:39;;;;;;;14.93;10.97;;;4.20;99.90;;;;;;5053549;28;20201;-77
2022/11/27 04:05:05;;;;;;;15.07;10.70;;;4.20;99.90;;;;;;5052471;28;20162;-77
2022/11/27 04:07:31;;;;;;;20.27;10.83;;;4.30;99.90;;;;;;5052287;28;20201;-77
2022/11/27 04:09:56;;;;;;;42.23;11.53;;;4.30;99.90;;;;;;5052281;28;20170;-77
2022/11/27 04:12:22;;;;;;;16.47;11.03;;;4.20;99.90;;;;;;5053649;28;20182;-77
2022/11/27 04:14:48;;;;;;;23.40;9.70;;;4.20;99.90;;;;;;5053063;28;20182;-77
2022/11/27 04:17:13;;;;;;;24.47;10.83;;;4.20;99.90;;;;;;5052684;28;20206;-77
2022/11/27 04:19:39;;;;;;;14.50;9.77;;;4.10;99.90;;;;;;5052120;28;20182;-77
2022/11/27 04:22:04;;;;;;;14.60;9.67;;;4.00;99.90;;;;;;5053261;28;20212;-77
2022/11/27 04:24:30;;;;;;;14.37;9.73;;;4.10;99.90;;;;;;5052151;28;20214;-77
2022/11/27 04:26:55;;;;;;;13.60;9.23;;;4.10;99.90;;;;;;5052989;28;20189;-77
2022/11/27 04:29:21;;;;;;;12.87;9.23;;;4.10;99.90;;;;;;5052028;28;20185;-77
2022/11/27 04:31:46;;;;;;;13.87;9.83;;;4.10;99.90;;;;;;5053441;28;20201;-77
2022/11/27 04:34:12;;;;;;;15.30;9.30;;;4.10;99.90;;;;;;5051993;28;20197;-77
2022/11/27 04:36:37;;;;;;;16.63;10.03;;;4.20;99.90;;;;;;5051952;28;20182;-77
2022/11/27 04:39:03;;;;;;;21.70;10.47;;;4.20;99.90;;;;;;5052210;28;20222;-77
2022/11/27 04:41:28;;;;;;;15.47;10.33;;;4.10;99.90;;;;;;5051860;28;20220;-77
2022/11/27 04:43:54;;;;;;;12.00;10.10;;;4.00;99.90;;;;;;5053363;28;20176;-77
2022/11/27 04:46:20;;;;;;;16.57;10.23;;;4.00;99.90;;;;;;5051984;28;20178;-77
2022/11/27 04:48:46;;;;;;;12.87;10.03;;;4.10;99.90;;;;;;5051883;28;20197;-77
2022/11/27 04:51:11;;;;;;;12.13;9.53;;;4.10;99.90;;;;;;5051742;28;20235;-77
2022/11/27 04:53:37;;;;;;;14.83;10.17;;;4.10;99.90;;;;;;5051854;28;20209;-77
2022/11/27 04:56:02;;;;;;;13.10;10.53;;;4.10;99.90;;;;;;5051878;28;20186;-77
2022/11/27 04:58:28;;;;;;;13.50;10.43;;;4.20;99.90;;;;;;5053430;28;20285;-77
2022/11/27 05:00:53;;;;;;;14.30;10.20;;;4.10;99.90;;;;;;5052945;28;20204;-77
2022/11/27 05:03:19;;;;;;;12.10;9.93;;;4.10;99.90;;;;;;5051772;28;20193;-77
2022/11/27 05:05:44;;;;;;;13.97;9.90;;;4.00;99.90;;;;;;5053476;28;20182;-77
2022/11/27 05:08:10;;;;;;;13.03;10.00;;;4.10;99.90;;;;;;5053058;28;20255;-77
2022/11/27 05:10:36;;;;;;;13.50;9.90;;;4.10;99.90;;;;;;5052880;28;20259;-77
2022/11/27 05:13:01;;;;;;;11.73;10.23;;;4.20;99.90;;;;;;5052065;28;20178;-77
2022/11/27 05:15:27;;;;;;;11.67;9.70;;;4.20;99.90;;;;;;5051596;28;20247;-77
2022/11/27 05:17:52;;;;;;;10.40;8.83;;;4.20;99.90;;;;;;5051575;28;20254;-77
2022/11/27 05:23:32;;;;;;;13.00;10.00;;;4.20;99.90;;;;;;5053189;28;20215;-77
2022/11/27 05:25:58;;;;;;;12.43;9.37;;;4.20;99.90;;;;;;5052912;28;20181;-77
2022/11/27 05:28:24;;;;;;;12.93;9.27;;;4.20;99.90;;;;;;5052091;28;20202;-77
2022/11/27 05:30:49;;;;;;;11.07;8.70;;;4.10;99.90;;;;;;5051448;28;20175;-77
2022/11/27 05:33:16;;;;;;;10.27;9.17;;;4.10;99.90;;;;;;5052869;28;20316;-77
2022/11/27 05:35:42;;;;;;;10.83;9.27;;;4.00;99.90;;;;;;5051751;28;20202;-77
2022/11/27 05:38:08;;;;;;;12.77;9.60;;;3.90;99.90;;;;;;5052955;28;20189;-77
2022/11/27 05:40:34;;;;;;;10.50;9.23;;;3.90;99.90;;;;;;5054941;28;20178;-77
2022/11/27 05:42:59;;;;;;;11.80;10.03;;;3.80;99.90;;;;;;5056459;28;20202;-77
2022/11/27 05:45:25;;;;;;;12.30;9.90;;;3.60;99.90;;;;;;5055813;28;20181;-77
2022/11/27 05:47:51;;;;;;;11.90;9.60;;;3.60;99.90;;;;;;5054738;28;20280;-77
2022/11/27 05:50:16;;;;;;;10.70;9.53;;;3.50;99.90;;;;;;5055690;28;20178;-77
2022/11/27 05:52:42;;;;;;;10.97;9.73;;;3.50;99.90;;;;;;5055161;28;20268;-77
2022/11/27 05:55:08;;;;;;;11.67;10.37;;;3.50;99.90;;;;;;5055387;28;20178;-77
2022/11/27 05:57:33;;;;;;;11.93;9.80;;;3.50;99.90;;;;;;5054728;28;20293;-77
2022/11/27 05:59:59;;;;;;;12.60;10.73;;;3.60;99.90;;;;;;5055185;28;20210;-77
2022/11/27 06:02:25;;;;;;;11.27;9.60;;;3.60;99.90;;;;;;5054574;28;20214;-77
2022/11/27 06:04:51;;;;;;;11.43;10.23;;;3.60;99.90;;;;;;5054504;28;20178;-77
2022/11/27 06:07:17;;;;;;;13.07;10.93;;;3.60;99.90;;;;;;5054529;28;20248;-77
2022/11/27 06:09:42;;;;;;;13.57;10.83;;;3.60;99.90;;;;;;5054838;28;20178;-77
2022/11/27 06:12:08;;;;;;;14.63;11.13;;;3.60;99.90;;;;;;5054436;28;20186;-77
2022/11/27 06:14:55;;;;;;;14.37;10.90;;;3.60;99.90;;;;;;5055831;28;20185;-77
2022/11/27 06:17:21;;;;;;;15.40;11.73;;;3.70;99.90;;;;;;5054310;28;20212;-77
2022/11/27 06:19:46;;;;;;;15.03;12.00;;;3.60;99.90;;;;;;5054293;28;20178;-77
2022/11/27 06:22:12;;;;;;;16.30;12.60;;;3.60;99.90;;;;;;5054151;28;20581;-77
2022/11/27 06:24:37;;;;;;;14.20;11.63;;;3.50;99.90;;;;;;5054217;28;20167;-77
2022/11/27 06:27:03;;;;;;;18.03;12.63;;;3.60;99.90;;;;;;5054426;28;20178;-77
2022/11/27 06:29:28;;;;;;;15.93;12.27;;;3.70;99.90;;;;;;5054570;28;20178;-77
2022/11/27 06:31:54;;;;;;;16.40;12.37;;;3.80;99.90;;;;;;5054335;28;20198;-77
2022/11/27 06:34:19;;;;;;;17.57;12.77;;;3.80;99.90;;;;;;5054085;28;20182;-77
2022/11/27 06:36:45;;;;;;;15.27;12.47;;;3.90;99.90;;;;;;5055444;28;20182;-77
2022/11/27 06:39:11;;;;;;;14.40;11.70;;;3.90;99.90;;;;;;5053940;28;20290;-77
2022/11/27 06:41:36;;;;;;;17.20;12.43;;;3.80;99.90;;;;;;5053870;28;20661;-77
2022/11/27 06:44:03;;;;;;;17.97;12.87;;;3.70;99.90;;;;;;5054243;28;20179;-77
2022/11/27 06:46:29;;;;;;;15.13;12.30;;;3.80;99.90;;;;;;5053891;28;20185;-77
2022/11/27 06:48:56;;;;;;;15.37;12.40;;;3.80;99.90;;;;;;5053860;28;20198;-77
2022/11/27 06:51:24;;;;;;;20.63;12.53;;;3.80;99.90;;;;;;5054026;28;20190;-77
2022/11/27 06:53:50;;;;;;;18.23;12.87;;;3.80;99.90;;;;;;5053979;28;20182;-77
2022/11/27 06:56:24;;;;;;;19.53;12.43;;;3.70;99.90;;;;;;5053722;28;20276;-77
2022/11/27 07:02:18;;;;;;;17.17;12.03;;;3.70;99.90;;;;;;5054775;28;20264;-77
2022/11/27 07:04:44;;;;;;;26.73;12.83;;;3.80;99.90;;;;;;5055198;28;20636;-77
2022/11/27 07:07:09;;;;;;;14.33;12.00;;;3.70;99.90;;;;;;5054848;28;20203;-77
2022/11/27 07:09:35;;;;;;;14.80;12.23;;;3.80;99.90;;;;;;5053449;28;20186;-77
2022/11/27 07:12:02;;;;;;;60.43;17.83;;;3.90;99.90;;;;;;5053426;28;20189;-77
2022/11/27 07:14:28;;;;;;;27.30;16.40;;;3.80;99.90;;;;;;5054567;28;20182;-77
2022/11/27 07:16:53;;;;;;;19.33;12.27;;;3.80;99.90;;;;;;5053463;28;20255;-77
2022/11/27 07:19:19;;;;;;;16.33;12.93;;;3.90;99.90;;;;;;5053282;28;20186;-77
2022/11/27 07:21:44;;;;;;;20.17;12.50;;;3.70;99.90;;;;;;5053416;28;20209;-77
2022/11/27 07:24:10;;;;;;;17.53;12.63;;;3.80;99.90;;;;;;5053394;28;20178;-77
2022/11/27 07:26:36;;;;;;;19.07;12.13;;;3.80;99.90;;;;;;5053323;28;20179;-77
2022/11/27 07:29:01;;;;;;;16.90;12.23;;;4.00;99.90;;;;;;5052950;28;20194;-77
2022/11/27 07:31:29;;;;;;;26.47;11.97;;;3.90;99.90;;;;;;5053240;28;20190;-77
2022/11/27 07:33:55;;;;;;;15.53;12.13;;;3.90;99.90;;;;;;5054160;28;20170;-77
2022/11/27 07:36:27;;;;;;;17.63;12.10;;;3.90;99.90;;;;;;5052849;28;20281;-77
2022/11/27 07:39:00;;;;;;;14.30;11.87;;;4.00;99.90;;;;;;5052960;28;20291;-77
2022/11/27 07:41:26;;;;;;;17.53;12.40;;;4.00;99.90;;;;;;5054068;28;20198;-77
2022/11/27 07:43:52;;;;;;;12.00;10.60;;;4.10;99.90;;;;;;5053167;28;20185;-77
2022/11/27 07:46:20;;;;;;;15.50;11.53;;;4.10;99.90;;;;;;5054512;28;20181;-77
2022/11/27 07:48:46;;;;;;;18.90;12.97;;;4.10;99.90;;;;;;5052878;28;20232;-77
2022/11/27 07:51:14;;;;;;;15.90;12.17;;;4.20;99.90;;;;;;5052645;28;20549;-77
2022/11/27 07:53:41;;;;;;;19.03;12.70;;;4.20;99.90;;;;;;5053488;28;20217;-77
2022/11/27 07:56:08;;;;;;;16.63;12.27;;;4.20;99.90;;;;;;5052921;28;20657;-77
2022/11/27 07:58:34;;;;;;;17.70;11.50;;;4.20;99.90;;;;;;5053254;28;20271;-77
2022/11/27 08:00:59;;;;;;;17.67;11.70;;;4.20;99.90;;;;;;5052114;28;20210;-77
2022/11/27 08:03:25;;;;;;;19.03;12.60;;;4.30;99.90;;;;;;5053542;28;20188;-77
2022/11/27 08:05:51;;;;;;;15.43;12.27;;;4.30;99.90;;;;;;5052522;28;20178;-77
2022/11/27 08:08:16;;;;;;;20.77;11.40;;;4.30;99.90;;;;;;5053828;28;20201;-77
2022/11/27 08:10:42;;;;;;;16.53;11.73;;;4.30;99.90;;;;;;5053195;28;20182;-77
2022/11/27 08:13:08;;;;;;;20.80;12.17;;;4.30;99.90;;;;;;5053709;28;20241;-77
2022/11/27 08:15:35;;;;;;;16.03;12.23;;;4.20;99.90;;;;;;5052560;28;20259;-76
2022/11/27 08:18:01;;;;;;;26.13;12.67;;;4.30;99.90;;;;;;5052508;28;20216;-76
2022/11/27 08:20:27;;;;;;;19.73;12.13;;;4.30;99.90;;;;;;5053430;28;20629;-76
2022/11/27 08:22:52;;;;;;;54.30;13.57;;;4.30;99.90;;;;;;5053501;28;20350;-76
2022/11/27 08:25:18;;;;;;;20.37;12.40;;;4.20;99.90;;;;;;5052671;28;20181;-77
2022/11/27 08:27:45;;;;;;;58.47;30.87;;;4.30;99.90;;;;;;5052394;28;20206;-77
2022/11/27 08:30:11;;;;;;;89.13;27.63;;;4.20;99.90;;;;;;5052092;28;20284;-77
2022/11/27 08:32:41;;;;;;;46.93;23.97;;;4.20;99.90;;;;;;5052119;28;20229;-77
2022/11/27 08:38:19;;;;;;;13.37;11.40;;;4.00;99.90;;;;;;5054076;28;20198;-76
2022/11/27 08:40:52;;;;;;;32.87;19.80;;;4.10;99.90;;;;;;5053425;28;20518;-76
2022/11/27 08:43:17;;;;;;;17.10;13.13;;;4.10;99.90;;;;;;5052070;28;20166;-76
2022/11/27 08:45:43;;;;;;;18.33;12.63;;;4.10;99.90;;;;;;5053146;28;20201;-76
2022/11/27 08:48:08;;;;;;;20.20;13.10;;;4.10;99.90;;;;;;5053491;28;20198;-76
2022/11/27 08:50:40;;;;;;;17.43;13.90;;;4.20;99.90;;;;;;5053090;28;20174;-76
2022/11/27 08:53:06;;;;;;;20.07;14.30;;;4.20;99.90;;;;;;5051863;28;20226;-76
2022/11/27 08:55:44;;;;;;;21.27;12.73;;;4.00;99.90;;;;;;5053306;28;20206;-76
2022/11/27 08:58:09;;;;;;;26.87;12.87;;;4.10;99.90;;;;;;5052698;28;20544;-77
2022/11/27 09:00:36;;;;;;;21.17;12.67;;;4.20;99.90;;;;;;5052101;28;20170;-77
2022/11/27 09:03:32;;;;;;;17.30;12.90;;;4.30;99.90;;;;;;5051856;28;20269;-76
2022/11/27 09:05:57;;;;;;;13.93;12.03;;;4.40;99.90;;;;;;5052998;28;20170;-76
2022/11/27 09:08:23;;;;;;;22.97;11.13;;;4.50;99.90;;;;;;5053676;28;20202;-76
2022/11/27 09:10:48;;;;;;;14.57;11.23;;;4.40;99.90;;;;;;5053185;28;20174;-76
2022/11/27 09:13:14;;;;;;;31.63;13.80;;;4.20;99.90;;;;;;5053460;28;20179;-76
2022/11/27 09:15:39;;;;;;;14.57;11.93;;;3.90;99.90;;;;;;5055802;28;20224;-77
2022/11/27 09:18:05;;;;;;;34.30;12.83;;;4.10;99.90;;;;;;5055499;28;20194;-77
2022/11/27 09:20:31;;;;;;;20.80;12.63;;;4.10;99.90;;;;;;5055560;28;20178;-77
2022/11/27 09:22:59;;;;;;;21.77;12.97;;;4.20;99.90;;;;;;5057173;28;20244;-77
2022/11/27 09:25:24;;;;;;;16.43;12.50;;;4.00;99.90;;;;;;5055429;28;20182;-77
2022/11/27 09:27:50;;;;;;;16.70;11.83;;;4.20;99.90;;;;;;5055685;28;20193;-77
2022/11/27 09:30:16;;;;;;;15.47;11.23;;;4.30;99.90;;;;;;5055648;28;20177;-77
2022/11/27 09:32:41;;;;;;;17.47;11.30;;;4.60;99.90;;;;;;5055211;28;20190;-77
2022/11/27 09:35:07;;;;;;;14.33;12.83;;;4.60;99.90;;;;;;5055497;28;20174;-77
2022/11/27 09:37:35;;;;;;;13.50;10.33;;;4.40;99.90;;;;;;5055100;28;20205;-77
2022/11/27 09:40:00;;;;;;;11.80;9.90;;;4.40;99.90;;;;;;5055316;28;20206;-77
2022/11/27 09:46:12;;;;;;;19.07;12.00;;;4.70;99.90;;;;;;5056389;28;20154;-77
2022/11/27 09:48:40;;;;;;;20.47;11.33;;;4.30;99.90;;;;;;5055387;28;20201;-76
2022/11/27 09:51:36;;;;;;;18.10;12.57;;;4.10;99.90;;;;;;5055240;28;20175;-77
2022/11/27 09:54:20;;;;;;;14.83;12.70;;;4.00;99.90;;;;;;5051946;28;20182;-77
2022/11/27 09:56:49;;;;;;;18.13;15.23;;;4.30;99.90;;;;;;5055043;28;20170;-76
2022/11/27 09:59:21;;;;;;;21.20;17.40;;;4.50;99.90;;;;;;5055147;28;20205;-77
2022/11/27 10:02:20;;;;;;;77.50;47.20;;;4.70;99.90;;;;;;5055538;28;20206;-76
2022/11/27 10:05:39;;;;;;;18.27;15.10;;;4.90;99.90;;;;;;5055634;28;20192;-76
2022/11/27 10:08:45;;;;;;;17.37;14.87;;;4.90;99.90;;;;;;5055019;28;20209;-77
2022/11/27 10:11:53;;;;;;;13.17;11.57;;;4.60;99.90;;;;;;5054560;28;20228;-77
2022/11/27 10:14:18;;;;;;;15.27;12.17;;;4.80;99.90;;;;;;5051408;28;20680;-77
2022/11/27 10:17:24;;;;;;;11.33;9.90;;;4.80;99.90;;;;;;5055346;28;20182;-77
2022/11/27 10:20:09;;;;;;;10.77;9.37;;;5.00;99.90;;;;;;5055788;28;20162;-76
2022/11/27 10:22:57;;;;;;;14.43;12.93;;;5.30;99.90;;;;;;5054914;28;20205;-77
2022/11/27 10:26:07;;;;;;;12.90;11.50;;;5.30;99.90;;;;;;5055564;28;20162;-77
2022/11/27 10:28:46;;;;;;;13.00;11.70;;;5.30;99.90;;;;;;5054824;28;20206;-85
2022/11/27 10:34:38;;;;;;;18.43;16.43;;;5.40;99.90;;;;;;5055819;28;20201;-81
2022/11/27 10:37:20;;;;;;;48.83;43.67;;;5.60;99.90;;;;;;5055622;28;20174;-81
2022/11/27 10:40:09;;;;;;;38.57;34.40;;;5.50;99.90;;;;;;5055485;28;20170;-76
2022/11/27 10:42:52;;;;;;;598.73;490.00;;;5.40;99.90;;;;;;5053854;28;20198;-78
2022/11/27 10:45:43;;;;;;;52.60;43.33;;;5.40;99.90;;;;;;5053953;28;20170;-77
2022/11/27 10:48:09;;;;;;;21.67;16.50;;;5.50;99.90;;;;;;5054623;28;20201;-77
2022/11/27 10:50:35;;;;;;;15.20;11.83;;;5.30;99.90;;;;;;5054453;28;20174;-77
2022/11/27 10:53:07;;;;;;;17.33;15.53;;;5.30;99.90;;;;;;5053781;28;20185;-77
2022/11/27 10:59:10;;;;;;;22.87;20.47;;;5.10;99.90;;;;;;5054758;28;20194;-80
2022/11/27 11:01:52;;;;;;;23.93;19.07;;;5.00;99.90;;;;;;5053725;28;20205;-77
2022/11/27 11:07:39;;;;;;;18.67;15.10;;;4.80;99.90;;;;;;5054682;28;20197;-77
2022/11/27 11:10:46;;;;;;;19.03;17.07;;;4.80;99.90;;;;;;5054713;28;20171;-77
2022/11/27 11:13:26;;;;;;;19.93;16.80;;;4.90;99.90;;;;;;5056440;28;20158;-77
2022/11/27 11:16:16;;;;;;;21.10;17.77;;;4.90;99.90;;;;;;5054419;28;20224;-77
2022/11/27 11:22:12;;;;;;;14.53;11.77;;;5.40;99.90;;;;;;5054431;28;20202;-77
2022/11/27 11:25:04;;;;;;;13.97;11.70;;;5.60;99.90;;;;;;5053137;28;20171;-77
2022/11/27 11:27:42;;;;;;;17.47;12.70;;;5.70;99.90;;;;;;5053136;28;20194;-77
2022/11/27 11:30:20;;;;;;;15.93;13.27;;;5.60;99.90;;;;;;5053239;28;20196;-77
2022/11/27 11:33:14;;;;;;;15.17;12.60;;;5.60;99.90;;;;;;5053070;28;20170;-77
2022/11/27 11:35:40;;;;;;;16.90;13.40;;;5.40;99.90;;;;;;5051362;28;20343;-77
2022/11/27 11:38:15;;;;;;;16.20;13.67;;;5.50;99.90;;;;;;5053766;28;20234;-77
2022/11/27 11:40:44;;;;;;;23.17;13.67;;;5.30;99.90;;;;;;5052878;28;20174;-77
2022/11/27 11:43:39;;;;;;;17.93;14.10;;;5.20;99.90;;;;;;5052877;28;20178;-77
2022/11/27 11:46:27;;;;;;;17.30;13.90;;;5.10;99.90;;;;;;5048724;28;20189;-77
2022/11/27 11:49:13;;;;;;;16.33;12.30;;;5.30;99.90;;;;;;5053866;28;20187;-77
2022/11/27 11:52:08;;;;;;;17.77;13.90;;;5.10;99.90;;;;;;5053982;28;20167;-77
2022/11/27 11:55:28;;;;;;;14.83;13.13;;;5.10;99.90;;;;;;5053841;28;20760;-77
2022/11/27 12:01:42;;;;;;;17.87;14.77;;;5.20;99.90;;;;;;5053609;28;20283;-77
2022/11/27 12:04:26;;;;;;;15.67;13.00;;;5.40;99.90;;;;;;5052406;28;20645;-78
2022/11/27 12:06:58;;;;;;;59.57;53.17;;;5.40;99.90;;;;;;5053734;28;20163;-77
2022/11/27 12:12:57;;;;;;;16.10;14.40;;;5.40;99.90;;;;;;5053698;28;20166;-78
2022/11/27 12:15:32;;;;;;;16.70;12.73;;;5.50;99.90;;;;;;5052687;28;20636;-79
2022/11/27 12:18:41;;;;;;;15.60;13.13;;;5.50;99.90;;;;;;5052116;28;20201;-77
2022/11/27 12:21:16;;;;;;;13.97;12.47;;;5.50;99.90;;;;;;5052472;28;20198;-77
2022/11/27 12:23:44;;;;;;;18.50;13.70;;;5.50;99.90;;;;;;5052161;28;20241;-77
2022/11/27 12:26:43;;;;;;;18.33;16.43;;;5.50;99.90;;;;;;5052130;28;20235;-77
2022/11/27 12:32:56;;;;;;;43.23;25.17;;;4.90;99.90;;;;;;5053329;28;20174;-77
2022/11/27 12:36:12;;;;;;;37.13;24.13;;;4.90;99.90;;;;;;5053528;28;20186;-77
2022/11/27 12:39:16;;;;;;;65.80;36.23;;;4.90;99.90;;;;;;5052039;28;20289;-77
2022/11/27 12:42:36;;;;;;;17.63;13.87;;;4.70;99.90;;;;;;5045776;28;20582;-77
2022/11/27 12:45:43;;;;;;;20.67;16.70;;;4.60;99.90;;;;;;5053499;28;20155;-78
2022/11/27 12:48:20;;;;;;;16.97;13.87;;;4.70;99.90;;;;;;5054162;28;20197;-77
2022/11/27 12:54:27;;;;;;;13.73;12.33;;;4.80;99.90;;;;;;5057283;28;20158;-77
2022/11/27 12:56:57;;;;;;;31.93;28.50;;;4.80;99.90;;;;;;5057003;28;20177;-78
2022/11/27 12:59:59;;;;;;;26.43;23.83;;;4.90;99.90;;;;;;5055984;28;20261;-77
2022/11/27 13:02:35;;;;;;;20.63;18.43;;;5.00;99.90;;;;;;5057062;28;20182;-77
2022/11/27 13:05:06;;;;;;;16.90;15.07;;;5.10;99.90;;;;;;5057406;28;20613;-77
2022/11/27 13:07:38;;;;;;;20.43;18.37;;;4.90;99.90;;;;;;5056617;28;20204;-77
2022/11/27 13:10:43;;;;;;;18.27;14.93;;;4.70;99.90;;;;;;5056932;28;20173;-77
2022/11/27 13:13:30;;;;;;;14.33;12.83;;;4.70;99.90;;;;;;5057266;28;20236;-77
2022/11/27 13:19:35;;;;;;;13.23;11.83;;;4.70;99.90;;;;;;5056731;28;20240;-77
2022/11/27 13:22:08;;;;;;;13.17;11.57;;;4.80;99.90;;;;;;5055449;28;20229;-77
2022/11/27 13:24:35;;;;;;;15.63;13.50;;;4.80;99.90;;;;;;5056215;28;20182;-77
2022/11/27 13:27:22;;;;;;;17.90;14.10;;;4.80;99.90;;;;;;5056812;28;20178;-77
2022/11/27 13:30:01;;;;;;;18.60;16.53;;;4.70;99.90;;;;;;5055453;28;20262;-77
2022/11/27 13:32:36;;;;;;;13.07;10.93;;;4.80;99.90;;;;;;5056281;28;20186;-77
2022/11/27 13:35:07;;;;;;;18.23;15.53;;;4.80;99.90;;;;;;5056566;28;20202;-77
2022/11/27 13:38:02;;;;;;;16.80;13.73;;;4.80;99.90;;;;;;5055267;28;20206;-77
2022/11/27 13:40:42;;;;;;;15.50;13.90;;;4.70;99.90;;;;;;5056697;28;20172;-77
2022/11/27 13:46:42;;;;;;;23.87;20.83;;;4.60;99.90;;;;;;5056298;28;20257;-77
2022/11/27 13:49:19;;;;;;;11.13;9.97;;;4.70;99.90;;;;;;5055677;28;20228;-77
2022/11/27 13:52:17;;;;;;;12.43;11.07;;;4.60;99.90;;;;;;5054952;28;20618;-77
2022/11/27 13:54:57;;;;;;;20.40;18.47;;;4.70;99.90;;;;;;5055375;28;20197;-77
2022/11/27 13:57:33;;;;;;;13.87;12.40;;;4.70;99.90;;;;;;5056052;28;20289;-77
2022/11/27 14:00:12;;;;;;;24.23;21.63;;;4.70;99.90;;;;;;5054079;28;20264;-77
2022/11/27 14:02:46;;;;;;;17.00;13.43;;;4.70;99.90;;;;;;5055206;28;20304;-77
2022/11/27 14:05:14;;;;;;;29.70;23.83;;;4.60;99.90;;;;;;5056749;28;20173;-77
2022/11/27 14:07:42;;;;;;;15.40;13.67;;;4.60;99.90;;;;;;5055270;28;20648;-77